createdAt,value
2018-12-13T00:00:36.960Z,0
2018-12-13T00:01:37.266Z,0
2018-12-13T00:02:36.995Z,0
2018-12-13T00:03:36.992Z,0
2018-12-13T00:04:37.045Z,0
2018-12-13T00:05:37.016Z,0
2018-12-13T00:06:41.799Z,0
2018-12-13T00:07:37.271Z,0
2018-12-13T00:08:37.023Z,0
2018-12-13T00:09:37.173Z,0
2018-12-13T00:10:36.980Z,0
2018-12-13T00:11:37.020Z,0
2018-12-13T00:12:36.996Z,0
2018-12-13T00:13:37.308Z,0
2018-12-13T00:14:36.992Z,0
2018-12-13T00:15:37.100Z,0
2018-12-13T00:16:38.426Z,0
2018-12-13T00:17:37.100Z,0
2018-12-13T00:18:36.989Z,0
2018-12-13T00:19:37.346Z,0
2018-12-13T00:20:36.980Z,0
2018-12-13T00:21:37.040Z,0
2018-12-13T00:22:37.090Z,0
2018-12-13T00:23:37.123Z,0
2018-12-13T00:24:37.306Z,0
2018-12-13T00:25:37.232Z,0
2018-12-13T00:26:37.088Z,0
2018-12-13T00:27:37.081Z,0
2018-12-13T00:28:37.095Z,0
2018-12-13T00:29:37.074Z,0
2018-12-13T00:30:37.336Z,0
2018-12-13T00:31:37.086Z,0
2018-12-13T00:32:37.094Z,0
2018-12-13T00:33:37.099Z,0
2018-12-13T00:34:37.070Z,0
2018-12-13T00:37:02.889Z,0
2018-12-13T00:37:30.480Z,0
2018-12-13T00:38:22.358Z,0
2018-12-13T00:39:15.040Z,0
2018-12-13T00:40:14.948Z,0
2018-12-13T00:41:14.959Z,0
2018-12-13T00:42:15.211Z,0
2018-12-13T00:43:14.873Z,0
2018-12-13T00:44:14.889Z,0
2018-12-13T00:45:14.933Z,0
2018-12-13T00:46:14.942Z,0
2018-12-13T00:47:14.931Z,0
2018-12-13T00:48:15.182Z,0
2018-12-13T00:49:15.223Z,0
2018-12-13T00:50:14.921Z,0
2018-12-13T00:51:14.900Z,0
2018-12-13T00:52:14.876Z,0
2018-12-13T00:53:15.037Z,0
2018-12-13T00:54:15.224Z,0
2018-12-13T00:55:15.400Z,0
2018-12-13T00:56:14.914Z,0
2018-12-13T00:57:14.934Z,0
2018-12-13T00:58:14.975Z,0
2018-12-13T00:59:14.911Z,0
2018-12-13T01:00:14.920Z,0
2018-12-13T01:01:15.306Z,0
2018-12-13T01:02:14.897Z,0
2018-12-13T01:03:14.951Z,0
2018-12-13T01:04:14.971Z,0
2018-12-13T01:05:14.954Z,0
2018-12-13T01:06:14.926Z,0
2018-12-13T01:07:16.672Z,0
2018-12-13T01:08:14.995Z,0
2018-12-13T01:09:14.912Z,0
2018-12-13T01:10:14.948Z,0
2018-12-13T01:11:15.034Z,0
2018-12-13T01:12:14.934Z,0
2018-12-13T01:13:15.309Z,0
2018-12-13T01:14:14.975Z,0
2018-12-13T01:15:14.915Z,0
2018-12-13T01:16:14.933Z,0
2018-12-13T01:17:14.924Z,0
2018-12-13T01:18:14.900Z,0
2018-12-13T01:19:15.215Z,0
2018-12-13T01:20:14.889Z,0
2018-12-13T01:21:20.374Z,0
2018-12-13T01:22:14.918Z,0
2018-12-13T01:23:15.010Z,0
2018-12-13T01:24:14.973Z,0
2018-12-13T01:25:15.272Z,0
2018-12-13T01:26:14.939Z,0
2018-12-13T01:27:14.952Z,0
2018-12-13T01:28:15.000Z,0
2018-12-13T01:29:14.951Z,0
2018-12-13T01:30:14.953Z,0
2018-12-13T01:31:15.298Z,0
2018-12-13T01:32:14.991Z,0
2018-12-13T01:33:15.018Z,0
2018-12-13T01:34:14.903Z,0
2018-12-13T01:35:15.000Z,0
2018-12-13T01:36:14.976Z,0
2018-12-13T01:37:15.236Z,0
2018-12-13T01:38:15.056Z,0
2018-12-13T01:39:14.935Z,0
2018-12-13T01:40:14.993Z,0
2018-12-13T01:41:14.996Z,0
2018-12-13T01:42:14.955Z,0
2018-12-13T01:43:15.276Z,0
2018-12-13T01:44:15.110Z,0
2018-12-13T01:45:14.935Z,0
2018-12-13T01:46:15.031Z,0
2018-12-13T01:47:15.024Z,0
2018-12-13T01:50:22.214Z,0
2018-12-13T01:50:34.167Z,0
2018-12-13T01:51:34.913Z,0
2018-12-13T01:52:34.018Z,0
2018-12-13T01:53:34.106Z,0
2018-12-13T01:54:34.183Z,0
2018-12-13T01:55:35.764Z,0
2018-12-13T01:56:34.454Z,0
2018-12-13T01:57:34.181Z,0
2018-12-13T01:58:34.127Z,0
2018-12-13T01:59:34.073Z,0
2018-12-13T02:00:34.126Z,0
2018-12-13T02:01:34.172Z,0
2018-12-13T02:02:34.447Z,0
2018-12-13T02:03:34.214Z,0
2018-12-13T02:04:34.223Z,0
2018-12-13T02:05:34.176Z,0
2018-12-13T02:06:34.139Z,0
2018-12-13T02:07:34.246Z,0
2018-12-13T02:08:34.454Z,0
2018-12-13T02:09:34.216Z,0
2018-12-13T02:10:34.167Z,0
2018-12-13T02:11:34.219Z,0
2018-12-13T02:14:41.400Z,0
2018-12-13T02:14:53.660Z,0
2018-12-13T02:15:53.621Z,0
2018-12-13T02:16:53.345Z,0
2018-12-13T02:17:53.311Z,0
2018-12-13T02:18:53.445Z,0
2018-12-13T02:19:53.367Z,0
2018-12-13T02:20:53.667Z,0
2018-12-13T02:21:53.326Z,0
2018-12-13T02:22:53.492Z,0
2018-12-13T02:23:53.436Z,0
2018-12-13T02:24:53.315Z,0
2018-12-13T02:25:53.392Z,0
2018-12-13T02:26:53.654Z,0
2018-12-13T02:27:53.454Z,0
2018-12-13T02:28:53.793Z,0
2018-12-13T02:29:53.379Z,0
2018-12-13T02:30:53.452Z,0
2018-12-13T02:31:53.344Z,0
2018-12-13T02:32:58.335Z,0
2018-12-13T02:33:53.434Z,0
2018-12-13T02:34:53.672Z,0
2018-12-13T02:35:53.361Z,0
2018-12-13T02:36:53.484Z,0
2018-12-13T02:37:53.543Z,0
2018-12-13T02:38:53.346Z,0
2018-12-13T02:39:53.499Z,0
2018-12-13T02:40:53.798Z,0
2018-12-13T02:41:53.450Z,0
2018-12-13T02:42:53.423Z,0
2018-12-13T02:43:53.400Z,0
2018-12-13T02:44:53.672Z,0
2018-12-13T02:45:53.489Z,0
2018-12-13T02:46:53.766Z,0
2018-12-13T02:47:53.582Z,0
2018-12-13T02:48:53.414Z,0
2018-12-13T02:49:53.398Z,0
2018-12-13T02:50:53.777Z,0
2018-12-13T02:51:53.438Z,0
2018-12-13T02:52:53.749Z,0
2018-12-13T02:54:58.143Z,0
2018-12-13T02:55:10.254Z,0
2018-12-13T02:56:10.126Z,0
2018-12-13T02:57:10.098Z,0
2018-12-13T02:58:10.433Z,0
2018-12-13T02:59:10.119Z,0
2018-12-13T03:00:10.182Z,0
2018-12-13T03:06:48.763Z,0
2018-12-13T03:07:48.697Z,0
2018-12-13T03:08:48.672Z,0
2018-12-13T03:09:48.685Z,0
2018-12-13T03:10:49.206Z,0
2018-12-13T03:11:48.639Z,0
2018-12-13T03:12:48.688Z,0
2018-12-13T03:13:48.592Z,0
2018-12-13T03:14:48.620Z,0
2018-12-13T03:15:48.677Z,0
2018-12-13T03:16:49.064Z,0
2018-12-13T03:17:52.604Z,0
2018-12-13T03:20:55.677Z,0
2018-12-13T03:21:08.681Z,0
2018-12-13T03:22:08.059Z,0
2018-12-13T03:23:07.726Z,0
2018-12-13T03:24:07.778Z,0
2018-12-13T03:25:07.830Z,0
2018-12-13T03:26:07.736Z,0
2018-12-13T03:27:07.768Z,0
2018-12-13T03:28:08.102Z,0
2018-12-13T03:29:07.893Z,0
2018-12-13T03:30:07.798Z,0
2018-12-13T03:31:07.751Z,0
2018-12-13T03:32:07.674Z,0
2018-12-13T03:33:07.943Z,0
2018-12-13T03:34:08.257Z,0
2018-12-13T03:35:08.100Z,0
2018-12-13T03:36:07.702Z,0
2018-12-13T03:37:07.813Z,0
2018-12-13T03:38:07.768Z,0
2018-12-13T03:39:07.750Z,0
2018-12-13T03:40:08.060Z,0
2018-12-13T03:41:07.993Z,0
2018-12-13T03:42:07.869Z,0
2018-12-13T03:43:07.809Z,0
2018-12-13T03:44:07.694Z,0
2018-12-13T03:45:07.695Z,0
2018-12-13T03:46:07.708Z,0
2018-12-13T03:47:08.015Z,0
2018-12-13T03:48:07.794Z,0
2018-12-13T03:50:12.327Z,0
2018-12-13T03:50:24.375Z,0
2018-12-13T03:51:24.718Z,0
2018-12-13T03:52:24.411Z,0
2018-12-13T03:53:24.396Z,0
2018-12-13T03:54:24.339Z,0
2018-12-13T03:55:24.388Z,0
2018-12-13T03:56:24.344Z,0
2018-12-13T03:57:24.748Z,0
2018-12-13T03:58:24.476Z,0
2018-12-13T03:59:24.436Z,0
2018-12-13T04:00:24.460Z,0
2018-12-13T04:01:24.410Z,0
2018-12-13T04:02:24.426Z,0
2018-12-13T04:03:24.818Z,0
2018-12-13T04:04:24.409Z,0
2018-12-13T04:05:24.481Z,0
2018-12-13T04:06:24.551Z,0
2018-12-13T04:07:30.669Z,0
2018-12-13T04:08:24.423Z,0
2018-12-13T04:09:24.816Z,0
2018-12-13T04:10:24.456Z,0
2018-12-13T04:11:24.481Z,0
2018-12-13T04:12:24.418Z,0
2018-12-13T04:13:24.403Z,0
2018-12-13T04:14:24.449Z,0
2018-12-13T04:15:24.677Z,0
2018-12-13T04:16:24.420Z,0
2018-12-13T04:17:28.067Z,0
2018-12-13T04:18:24.427Z,0
2018-12-13T04:19:24.435Z,0
2018-12-13T04:20:24.590Z,0
2018-12-13T04:21:24.685Z,0
2018-12-13T04:22:24.413Z,0
2018-12-13T04:23:24.454Z,0
2018-12-13T04:24:24.632Z,0
2018-12-13T04:25:24.432Z,0
2018-12-13T04:26:24.429Z,0
2018-12-13T04:27:24.777Z,0
2018-12-13T04:28:24.397Z,0
2018-12-13T04:29:24.580Z,0
2018-12-13T04:30:24.502Z,0
2018-12-13T04:31:24.410Z,0
2018-12-13T04:32:24.509Z,0
2018-12-13T04:33:24.810Z,0
2018-12-13T04:34:24.482Z,0
2018-12-13T04:35:24.433Z,0
2018-12-13T04:36:24.458Z,0
2018-12-13T04:37:24.441Z,0
2018-12-13T04:38:24.448Z,0
2018-12-13T04:39:24.825Z,0
2018-12-13T04:40:24.437Z,0
2018-12-13T04:41:24.363Z,0
2018-12-13T04:42:24.413Z,0
2018-12-13T04:43:24.480Z,0
2018-12-13T04:44:24.458Z,0
2018-12-13T04:45:24.740Z,0
2018-12-13T04:46:24.469Z,0
2018-12-13T04:47:24.391Z,0
2018-12-13T04:48:25.158Z,0
2018-12-13T04:49:24.501Z,0
2018-12-13T04:50:24.414Z,0
2018-12-13T04:51:24.781Z,0
2018-12-13T04:52:24.411Z,0
2018-12-13T04:53:24.405Z,0
2018-12-13T04:54:25.773Z,0
2018-12-13T04:55:24.429Z,0
2018-12-13T04:56:24.419Z,0
2018-12-13T04:57:24.777Z,0
2018-12-13T04:58:24.496Z,0
2018-12-13T04:59:24.469Z,0
2018-12-13T05:00:24.503Z,0
2018-12-13T05:01:24.496Z,0
2018-12-13T05:02:24.472Z,0
2018-12-13T05:03:24.860Z,0
2018-12-13T05:04:24.523Z,0
2018-12-13T05:05:24.532Z,0
2018-12-13T05:06:24.570Z,0
2018-12-13T05:07:24.546Z,0
2018-12-13T05:08:24.523Z,0
2018-12-13T05:09:24.818Z,0
2018-12-13T05:10:24.833Z,0
2018-12-13T05:11:24.442Z,0
2018-12-13T05:12:24.543Z,0
2018-12-13T05:13:24.519Z,0
2018-12-13T05:14:24.522Z,0
2018-12-13T05:15:24.972Z,0
2018-12-13T05:16:24.494Z,0
2018-12-13T05:17:24.470Z,0
2018-12-13T05:18:24.531Z,0
2018-12-13T05:19:24.522Z,0
2018-12-13T05:20:24.491Z,0
2018-12-13T05:21:28.786Z,0
2018-12-13T05:22:24.478Z,0
2018-12-13T05:23:24.531Z,0
2018-12-13T05:24:24.814Z,0
2018-12-13T05:25:25.568Z,0
2018-12-13T05:26:24.502Z,0
2018-12-13T05:27:24.774Z,0
2018-12-13T05:28:24.887Z,0
2018-12-13T05:29:24.488Z,0
2018-12-13T05:30:24.533Z,0
2018-12-13T05:31:24.554Z,0
2018-12-13T05:32:24.543Z,0
2018-12-13T05:33:24.533Z,0
2018-12-13T05:34:24.862Z,0
2018-12-13T05:35:24.558Z,0
2018-12-13T05:36:24.681Z,0
2018-12-13T05:37:24.532Z,0
2018-12-13T05:38:24.513Z,0
2018-12-13T05:39:24.926Z,0
2018-12-13T05:40:24.837Z,0
2018-12-13T05:41:24.529Z,0
2018-12-13T05:42:24.637Z,0
2018-12-13T05:43:25.858Z,0
2018-12-13T05:44:24.549Z,0
2018-12-13T05:45:24.633Z,0
2018-12-13T05:52:51.018Z,0
2018-12-13T05:57:19.605Z,0
2018-12-13T05:57:31.631Z,0
2018-12-13T05:58:32.993Z,0
2018-12-13T05:59:31.584Z,0
2018-12-13T06:00:31.687Z,0
2018-12-13T06:01:31.657Z,0
2018-12-13T06:02:31.808Z,0
2018-12-13T06:07:00.811Z,0
2018-12-13T06:08:03.675Z,0
2018-12-13T06:09:00.680Z,0
2018-12-13T06:10:00.707Z,0
2018-12-13T06:11:00.695Z,0
2018-12-13T06:12:01.636Z,0
2018-12-13T06:13:00.885Z,0
2018-12-13T06:14:00.713Z,0
2018-12-13T06:15:00.766Z,0
2018-12-13T06:16:00.754Z,0
2018-12-13T06:17:00.736Z,0
2018-12-13T06:18:06.612Z,0
2018-12-13T06:19:00.690Z,0
2018-12-13T06:20:00.681Z,0
2018-12-13T06:21:00.975Z,0
2018-12-13T06:22:00.853Z,0
2018-12-13T06:23:00.717Z,0
2018-12-13T06:24:09.609Z,0
2018-12-13T06:25:00.745Z,0
2018-12-13T06:26:00.784Z,0
2018-12-13T06:27:00.748Z,0
2018-12-13T06:28:00.776Z,0
2018-12-13T06:29:41.755Z,0
2018-12-13T06:30:13.030Z,0
2018-12-13T06:31:00.757Z,0
2018-12-13T06:32:00.808Z,0
2018-12-13T06:33:01.170Z,0
2018-12-13T06:34:00.823Z,0
2018-12-13T06:35:08.267Z,0
2018-12-13T06:36:00.733Z,4
2018-12-13T06:37:00.910Z,0
2018-12-13T06:38:06.831Z,0
2018-12-13T06:39:00.789Z,0
2018-12-13T06:40:00.757Z,0
2018-12-13T06:41:01.099Z,0
2018-12-13T06:42:00.891Z,4
2018-12-13T06:43:00.879Z,4
2018-12-13T06:44:00.862Z,0
2018-12-13T06:45:00.842Z,0
2018-12-13T06:46:00.780Z,4
2018-12-13T06:51:18.418Z,4
2018-12-13T06:51:30.501Z,4
2018-12-13T06:52:30.850Z,4
2018-12-13T06:53:30.412Z,4
2018-12-13T06:54:30.389Z,4
2018-12-13T06:55:30.753Z,0
2018-12-13T06:56:30.367Z,4
2018-12-13T06:57:30.499Z,4
2018-12-13T06:58:30.401Z,4
2018-12-13T06:59:30.505Z,4
2018-12-13T07:00:33.595Z,4
2018-12-13T07:01:30.747Z,8
2018-12-13T07:02:31.041Z,8
2018-12-13T07:03:30.378Z,8
2018-12-13T07:04:30.373Z,12
2018-12-13T07:05:30.398Z,12
2018-12-13T07:06:30.488Z,12
2018-12-13T07:07:30.709Z,12
2018-12-13T07:08:30.422Z,16
2018-12-13T07:09:30.414Z,16
2018-12-13T07:10:30.341Z,12
2018-12-13T07:11:30.384Z,16
2018-12-13T07:12:30.498Z,16
2018-12-13T07:13:30.871Z,20
2018-12-13T07:14:30.443Z,20
2018-12-13T07:15:30.486Z,20
2018-12-13T07:16:30.354Z,20
2018-12-13T07:17:33.889Z,20
2018-12-13T07:18:30.791Z,24
2018-12-13T07:19:30.710Z,20
2018-12-13T07:20:31.912Z,24
2018-12-13T07:21:30.489Z,24
2018-12-13T07:22:30.503Z,24
2018-12-13T07:23:30.481Z,28
2018-12-13T07:24:30.421Z,28
2018-12-13T07:25:30.850Z,24
2018-12-13T07:26:30.417Z,28
2018-12-13T07:27:30.412Z,28
2018-12-13T07:28:31.892Z,32
2018-12-13T07:29:30.481Z,28
2018-12-13T07:30:30.385Z,32
2018-12-13T07:31:30.806Z,36
2018-12-13T07:32:30.486Z,36
2018-12-13T07:33:30.565Z,40
2018-12-13T07:34:30.395Z,36
2018-12-13T07:35:30.461Z,40
2018-12-13T07:36:30.443Z,44
2018-12-13T07:37:30.798Z,44
2018-12-13T07:38:30.409Z,44
2018-12-13T07:39:30.470Z,52
2018-12-13T07:40:30.381Z,56
2018-12-13T07:41:30.457Z,56
2018-12-13T07:42:30.457Z,56
2018-12-13T07:43:30.854Z,60
2018-12-13T07:44:30.407Z,60
2018-12-13T07:45:30.458Z,60
2018-12-13T07:46:46.996Z,60
2018-12-13T07:47:47.296Z,64
2018-12-13T07:48:47.257Z,76
2018-12-13T07:49:47.323Z,80
2018-12-13T07:50:46.992Z,84
2018-12-13T07:51:47.025Z,88
2018-12-13T07:52:47.006Z,92
2018-12-13T07:53:47.009Z,96
2018-12-13T07:54:47.299Z,100
2018-12-13T07:55:47.024Z,100
2018-12-13T07:56:46.976Z,104
2018-12-13T07:57:47.138Z,104
2018-12-13T07:58:46.960Z,112
2018-12-13T07:59:47.039Z,112
2018-12-13T08:00:47.364Z,112
2018-12-13T08:01:47.065Z,120
2018-12-13T08:02:47.039Z,120
2018-12-13T08:03:46.963Z,128
2018-12-13T08:04:46.982Z,132
2018-12-13T08:05:47.014Z,140
2018-12-13T08:06:47.506Z,144
2018-12-13T08:07:46.986Z,144
2018-12-13T08:08:47.038Z,152
2018-12-13T08:09:47.047Z,152
2018-12-13T08:10:46.993Z,156
2018-12-13T08:11:47.064Z,164
2018-12-13T08:12:47.309Z,164
2018-12-13T08:13:47.028Z,168
2018-12-13T08:14:47.136Z,176
2018-12-13T08:15:46.998Z,168
2018-12-13T08:16:47.059Z,168
2018-12-13T08:17:46.997Z,172
2018-12-13T08:18:47.387Z,168
2018-12-13T08:19:47.115Z,168
2018-12-13T08:20:47.145Z,168
2018-12-13T08:21:47.100Z,168
2018-12-13T08:22:47.125Z,168
2018-12-13T08:23:47.004Z,172
2018-12-13T08:24:47.492Z,168
2018-12-13T08:26:51.638Z,176
2018-12-13T08:27:03.749Z,176
2018-12-13T08:28:04.820Z,180
2018-12-13T08:29:04.107Z,184
2018-12-13T08:30:03.916Z,184
2018-12-13T08:31:03.986Z,184
2018-12-13T08:32:05.216Z,188
2018-12-13T08:33:03.651Z,184
2018-12-13T08:34:03.618Z,176
2018-12-13T08:35:03.599Z,160
2018-12-13T08:36:03.996Z,148
2018-12-13T08:37:03.946Z,144
2018-12-13T08:38:03.655Z,144
2018-12-13T08:39:03.692Z,152
2018-12-13T08:40:03.614Z,160
2018-12-13T08:41:03.709Z,168
2018-12-13T08:42:03.652Z,172
2018-12-13T08:43:03.930Z,172
2018-12-13T08:44:03.696Z,168
2018-12-13T08:45:03.585Z,156
2018-12-13T08:46:03.653Z,164
2018-12-13T08:47:03.744Z,168
2018-12-13T08:48:03.665Z,172
2018-12-13T08:49:03.964Z,180
2018-12-13T08:50:03.572Z,188
2018-12-13T08:51:03.843Z,192
2018-12-13T08:52:03.634Z,196
2018-12-13T08:53:03.611Z,196
2018-12-13T08:54:04.177Z,192
2018-12-13T08:55:03.678Z,204
2018-12-13T08:56:03.679Z,208
2018-12-13T08:57:03.625Z,208
2018-12-13T08:58:03.703Z,208
2018-12-13T08:59:12.735Z,212
2018-12-13T09:00:03.976Z,212
2018-12-13T09:01:03.731Z,212
2018-12-13T09:02:04.003Z,220
2018-12-13T09:03:03.837Z,216
2018-12-13T09:04:03.796Z,220
2018-12-13T09:05:03.703Z,220
2018-12-13T09:06:03.966Z,224
2018-12-13T09:07:03.691Z,220
2018-12-13T09:08:03.757Z,224
2018-12-13T09:09:09.016Z,224
2018-12-13T09:10:03.724Z,228
2018-12-13T09:11:03.716Z,224
2018-12-13T09:12:04.049Z,224
2018-12-13T09:13:03.663Z,228
2018-12-13T09:14:03.750Z,220
2018-12-13T09:15:03.736Z,216
2018-12-13T09:16:03.717Z,224
2018-12-13T09:17:03.730Z,204
2018-12-13T09:18:03.989Z,216
2018-12-13T09:19:03.684Z,196
2018-12-13T09:20:03.698Z,216
2018-12-13T09:21:03.775Z,228
2018-12-13T09:22:03.707Z,196
2018-12-13T09:23:03.686Z,216
2018-12-13T09:24:04.082Z,236
2018-12-13T09:25:03.650Z,252
2018-12-13T09:26:03.697Z,236
2018-12-13T09:27:03.673Z,248
2018-12-13T09:28:03.743Z,260
2018-12-13T09:29:03.748Z,260
2018-12-13T09:30:05.061Z,228
2018-12-13T09:31:03.762Z,244
2018-12-13T09:32:03.800Z,232
2018-12-13T09:33:03.776Z,236
2018-12-13T09:34:03.788Z,224
2018-12-13T09:35:03.819Z,232
2018-12-13T09:36:04.177Z,220
2018-12-13T09:37:03.807Z,228
2018-12-13T09:38:03.780Z,208
2018-12-13T09:39:03.766Z,208
2018-12-13T09:40:04.113Z,212
2018-12-13T09:41:04.527Z,224
2018-12-13T09:42:05.257Z,224
2018-12-13T09:43:04.893Z,200
2018-12-13T09:44:04.740Z,212
2018-12-13T09:45:03.826Z,224
2018-12-13T09:46:03.741Z,228
2018-12-13T09:47:03.770Z,212
2018-12-13T09:48:04.087Z,196
2018-12-13T09:49:03.863Z,232
2018-12-13T09:50:04.194Z,232
2018-12-13T09:51:03.898Z,228
2018-12-13T09:52:03.740Z,224
2018-12-13T09:53:03.853Z,224
2018-12-13T09:54:04.135Z,196
2018-12-13T09:55:09.014Z,232
2018-12-13T09:56:03.694Z,224
2018-12-13T09:57:03.871Z,228
2018-12-13T09:58:03.786Z,228
2018-12-13T09:59:04.022Z,228
2018-12-13T10:00:03.855Z,228
2018-12-13T10:01:04.139Z,228
2018-12-13T10:02:03.939Z,232
2018-12-13T10:03:04.049Z,228
2018-12-13T10:04:03.805Z,224
2018-12-13T10:05:03.787Z,224
2018-12-13T10:06:03.788Z,228
2018-12-13T10:07:04.125Z,228
2018-12-13T10:08:03.747Z,236
2018-12-13T10:09:03.914Z,232
2018-12-13T10:10:03.862Z,220
2018-12-13T10:11:03.820Z,228
2018-12-13T10:12:38.667Z,236
2018-12-13T10:13:04.112Z,224
2018-12-13T10:14:03.844Z,196
2018-12-13T10:15:03.955Z,248
2018-12-13T10:16:03.906Z,264
2018-12-13T10:17:03.936Z,280
2018-12-13T10:18:08.519Z,272
2018-12-13T10:19:03.858Z,288
2018-12-13T10:20:04.029Z,264
2018-12-13T10:21:03.935Z,300
2018-12-13T10:22:03.938Z,256
2018-12-13T10:23:03.843Z,276
2018-12-13T10:24:09.173Z,284
2018-12-13T10:25:03.854Z,284
2018-12-13T10:26:08.061Z,300
2018-12-13T10:27:03.873Z,332
2018-12-13T10:28:03.917Z,336
2018-12-13T10:29:03.880Z,296
2018-12-13T10:30:09.197Z,280
2018-12-13T10:31:03.859Z,292
2018-12-13T10:32:03.971Z,304
2018-12-13T10:33:03.803Z,316
2018-12-13T10:34:03.874Z,348
2018-12-13T10:35:03.920Z,324
2018-12-13T10:36:04.206Z,344
2018-12-13T10:37:38.577Z,348
2018-12-13T10:38:03.900Z,352
2018-12-13T10:39:03.820Z,352
2018-12-13T10:40:03.923Z,312
2018-12-13T10:41:03.915Z,304
2018-12-13T10:42:04.242Z,324
2018-12-13T10:43:03.881Z,288
2018-12-13T10:44:04.365Z,268
2018-12-13T10:45:03.984Z,272
2018-12-13T10:46:03.835Z,268
2018-12-13T10:47:03.998Z,260
2018-12-13T10:48:04.221Z,280
2018-12-13T10:49:03.898Z,260
2018-12-13T10:50:03.924Z,252
2018-12-13T10:51:03.914Z,260
2018-12-13T10:52:03.827Z,264
2018-12-13T10:53:03.927Z,264
2018-12-13T10:54:05.265Z,268
2018-12-13T10:55:03.854Z,296
2018-12-13T10:56:03.876Z,272
2018-12-13T10:57:03.858Z,264
2018-12-13T10:58:03.896Z,248
2018-12-13T10:59:03.924Z,224
2018-12-13T11:00:04.279Z,224
2018-12-13T11:01:03.833Z,180
2018-12-13T11:02:03.852Z,176
2018-12-13T11:03:03.875Z,176
2018-12-13T11:04:03.793Z,176
2018-12-13T11:05:03.993Z,176
2018-12-13T11:13:49.746Z,164
2018-12-13T11:14:01.785Z,164
2018-12-13T11:15:01.757Z,156
2018-12-13T11:16:01.794Z,156
2018-12-13T11:17:01.777Z,160
2018-12-13T11:18:01.784Z,164
2018-12-13T11:23:19.095Z,168
2018-12-13T11:23:31.405Z,184
2018-12-13T11:24:31.705Z,196
2018-12-13T11:25:31.354Z,220
2018-12-13T11:26:31.461Z,224
2018-12-13T11:27:31.402Z,224
2018-12-13T11:28:31.498Z,220
2018-12-13T11:29:31.657Z,220
2018-12-13T11:30:31.725Z,228
2018-12-13T11:31:31.426Z,220
2018-12-13T11:32:31.393Z,212
2018-12-13T11:33:31.570Z,208
2018-12-13T11:34:31.376Z,192
2018-12-13T11:35:32.096Z,184
2018-12-13T11:36:31.693Z,176
2018-12-13T11:37:31.444Z,176
2018-12-13T11:38:31.455Z,176
2018-12-13T11:39:31.465Z,176
2018-12-13T11:40:31.431Z,184
2018-12-13T11:41:31.686Z,184
2018-12-13T11:42:31.400Z,188
2018-12-13T11:43:31.485Z,192
2018-12-13T11:44:31.512Z,200
2018-12-13T11:45:31.377Z,240
2018-12-13T11:46:31.462Z,236
2018-12-13T11:47:31.759Z,236
2018-12-13T11:48:31.414Z,228
2018-12-13T11:49:31.495Z,228
2018-12-13T11:50:31.468Z,224
2018-12-13T11:51:31.489Z,224
2018-12-13T11:52:31.395Z,240
2018-12-13T11:53:31.766Z,236
2018-12-13T11:54:31.463Z,248
2018-12-13T11:55:31.443Z,224
2018-12-13T11:56:31.433Z,264
2018-12-13T11:57:31.552Z,248
2018-12-13T11:58:31.844Z,236
2018-12-13T11:59:31.816Z,216
2018-12-13T12:00:31.566Z,204
2018-12-13T12:01:31.425Z,192
2018-12-13T12:02:32.570Z,188
2018-12-13T12:03:31.469Z,184
2018-12-13T12:04:31.484Z,184
2018-12-13T12:05:31.812Z,176
2018-12-13T12:06:31.454Z,144
2018-12-13T12:07:31.405Z,144
2018-12-13T12:08:31.452Z,148
2018-12-13T12:09:32.261Z,148
2018-12-13T12:10:31.468Z,152
2018-12-13T12:11:31.816Z,152
2018-12-13T12:12:31.483Z,152
2018-12-13T12:13:31.435Z,156
2018-12-13T12:14:31.465Z,172
2018-12-13T12:15:31.453Z,180
2018-12-13T12:16:31.387Z,188
2018-12-13T12:17:32.717Z,204
2018-12-13T12:18:31.522Z,228
2018-12-13T12:19:31.496Z,236
2018-12-13T12:20:31.447Z,228
2018-12-13T12:21:31.488Z,236
2018-12-13T12:22:59.737Z,260
2018-12-13T12:23:31.771Z,264
2018-12-13T12:24:31.590Z,240
2018-12-13T12:25:31.543Z,240
2018-12-13T12:26:31.526Z,236
2018-12-13T12:27:31.522Z,228
2018-12-13T12:28:31.507Z,216
2018-12-13T12:29:32.179Z,216
2018-12-13T12:30:31.982Z,208
2018-12-13T12:31:31.567Z,204
2018-12-13T12:33:36.086Z,192
2018-12-13T12:33:48.018Z,192
2018-12-13T12:34:48.402Z,188
2018-12-13T12:35:48.099Z,192
2018-12-13T12:36:48.106Z,188
2018-12-13T12:37:48.012Z,172
2018-12-13T12:38:48.167Z,160
2018-12-13T12:39:47.955Z,144
2018-12-13T12:40:48.433Z,128
2018-12-13T12:41:48.042Z,112
2018-12-13T12:42:48.125Z,108
2018-12-13T12:43:48.084Z,104
2018-12-13T12:44:48.035Z,100
2018-12-13T12:45:48.128Z,92
2018-12-13T12:46:48.391Z,88
2018-12-13T12:47:48.109Z,92
2018-12-13T12:48:48.053Z,88
2018-12-13T12:49:48.097Z,88
2018-12-13T12:50:48.047Z,88
2018-12-13T12:51:48.094Z,92
2018-12-13T12:53:53.010Z,88
2018-12-13T12:54:04.973Z,92
2018-12-13T12:55:05.613Z,92
2018-12-13T12:56:05.017Z,96
2018-12-13T12:57:04.998Z,96
2018-12-13T12:58:05.075Z,100
2018-12-13T12:59:05.552Z,104
2018-12-13T13:00:05.128Z,104
2018-12-13T13:01:05.010Z,108
2018-12-13T13:02:05.089Z,104
2018-12-13T13:03:05.039Z,104
2018-12-13T13:04:04.996Z,104
2018-12-13T13:05:05.299Z,96
2018-12-13T13:06:04.958Z,100
2018-12-13T13:07:05.619Z,100
2018-12-13T13:08:06.096Z,100
2018-12-13T13:09:04.986Z,96
2018-12-13T13:10:05.065Z,92
2018-12-13T13:11:05.281Z,88
2018-12-13T13:12:05.019Z,84
2018-12-13T13:13:04.956Z,80
2018-12-13T13:14:05.120Z,76
2018-12-13T13:15:05.390Z,76
2018-12-13T13:16:04.984Z,72
2018-12-13T13:17:04.998Z,72
2018-12-13T13:18:05.012Z,68
2018-12-13T13:19:05.063Z,64
2018-12-13T13:20:05.016Z,60
2018-12-13T13:21:05.331Z,60
2018-12-13T13:22:04.986Z,56
2018-12-13T13:23:05.005Z,52
2018-12-13T13:24:05.039Z,52
2018-12-13T13:25:05.055Z,52
2018-12-13T13:26:05.064Z,48
2018-12-13T13:27:05.469Z,48
2018-12-13T13:28:05.041Z,48
2018-12-13T13:29:05.062Z,44
2018-12-13T13:30:05.130Z,40
2018-12-13T13:31:05.021Z,40
2018-12-13T13:32:05.138Z,40
2018-12-13T13:33:05.315Z,40
2018-12-13T13:34:05.210Z,40
2018-12-13T13:35:05.291Z,40
2018-12-13T13:36:05.054Z,36
2018-12-13T13:37:05.095Z,36
2018-12-13T13:38:05.038Z,36
2018-12-13T13:39:05.379Z,36
2018-12-13T13:40:05.106Z,36
2018-12-13T13:41:05.040Z,40
2018-12-13T13:42:05.151Z,40
2018-12-13T13:43:05.064Z,44
2018-12-13T13:44:05.102Z,40
2018-12-13T13:45:05.490Z,40
2018-12-13T13:46:05.047Z,44
2018-12-13T13:47:05.202Z,40
2018-12-13T13:48:05.059Z,44
2018-12-13T13:49:05.051Z,44
2018-12-13T13:50:05.111Z,44
2018-12-13T13:51:05.378Z,44
2018-12-13T13:52:05.430Z,44
2018-12-13T13:53:05.190Z,44
2018-12-13T13:54:05.114Z,44
2018-12-13T13:55:05.181Z,44
2018-12-13T13:56:05.199Z,40
2018-12-13T13:57:05.429Z,36
2018-12-13T13:58:05.089Z,36
2018-12-13T13:59:05.099Z,32
2018-12-13T14:00:05.061Z,32
2018-12-13T14:01:05.088Z,32
2018-12-13T14:02:05.665Z,32
2018-12-13T14:03:05.379Z,32
2018-12-13T14:04:05.101Z,32
2018-12-13T14:05:05.518Z,32
2018-12-13T14:06:05.157Z,32
2018-12-13T14:07:05.336Z,32
2018-12-13T14:08:05.118Z,28
2018-12-13T14:09:05.491Z,28
2018-12-13T14:10:05.039Z,24
2018-12-13T14:11:05.118Z,28
2018-12-13T14:12:05.087Z,24
2018-12-13T14:13:05.633Z,24
2018-12-13T14:14:05.127Z,20
2018-12-13T14:15:05.448Z,20
2018-12-13T14:16:05.195Z,20
2018-12-13T14:17:05.104Z,24
2018-12-13T14:18:05.079Z,20
2018-12-13T14:19:05.098Z,20
2018-12-13T14:20:05.106Z,20
2018-12-13T14:21:05.520Z,20
2018-12-13T14:22:05.231Z,16
2018-12-13T14:23:05.241Z,20
2018-12-13T14:24:05.058Z,20
2018-12-13T14:25:05.145Z,20
2018-12-13T14:26:05.162Z,16
2018-12-13T14:27:05.477Z,16
2018-12-13T14:28:05.158Z,16
2018-12-13T14:29:05.420Z,16
2018-12-13T14:30:05.151Z,12
2018-12-13T14:31:05.062Z,16
2018-12-13T14:32:05.215Z,12
2018-12-13T14:33:05.206Z,12
2018-12-13T14:34:05.285Z,12
2018-12-13T14:35:06.350Z,12
2018-12-13T14:36:05.214Z,12
2018-12-13T14:37:05.341Z,16
2018-12-13T14:38:05.183Z,12
2018-12-13T14:39:05.819Z,12
2018-12-13T14:40:05.218Z,12
2018-12-13T14:41:05.529Z,12
2018-12-13T14:42:05.287Z,12
2018-12-13T14:43:05.101Z,12
2018-12-13T14:44:05.152Z,12
2018-12-13T14:45:05.271Z,8
2018-12-13T14:46:05.143Z,8
2018-12-13T14:47:05.488Z,8
2018-12-13T14:48:05.188Z,8
2018-12-13T14:49:05.108Z,8
2018-12-13T14:50:05.287Z,8
2018-12-13T14:51:05.239Z,8
2018-12-13T14:52:05.116Z,8
2018-12-13T14:53:05.492Z,8
2018-12-13T14:54:05.144Z,8
2018-12-13T14:55:06.830Z,8
2018-12-13T14:56:05.198Z,8
2018-12-13T14:57:05.287Z,4
2018-12-13T14:58:05.190Z,4